.
WxDataArchive / Data Records for 2006-04-29
2006-04-28 April 2006 2006-04-30

Data Records for Saturday, 29 April 2006

Time	Temp	Chill	HIndex	Humid	Dewpt	 Wind 	HiWind	WindDir	Rain 	Barom 
-----	----	-----	------	-----	-----	------	------	-------	-----	----- 
00:00	46.8	46.8	46.8	42	24.9	3	7	90	0.00	30.264 
00:05	46.7	46.7	46.7	44	26.0	3	8	90	0.00	30.264 
00:10	46.5	46.5	46.5	44	25.8	3	9	90	0.00	30.264 
00:15	46.4	46.4	46.4	43	25.1	3	7	90	0.00	30.258 
00:20	46.2	46.2	46.2	43	25.0	3	7	90	0.00	30.258 
00:25	46.2	46.2	46.2	44	25.5	3	6	90	0.00	30.258 
00:30	46.2	46.2	46.2	43	25.0	3	6	90	0.00	30.258 
00:35	46.1	46.1	46.1	43	24.9	3	6	90	0.00	30.258 
00:40	46.1	46.1	46.1	42	24.3	3	6	90	0.00	30.258 
00:45	46.0	46.0	46.0	43	24.8	3	6	90	0.00	30.253 
00:50	46.0	46.0	46.0	43	24.8	2	5	90	0.00	30.253 
00:55	45.8	45.8	45.8	43	24.6	2	5	90	0.00	30.253 
01:00	45.7	45.7	45.7	43	24.5	3	6	90	0.00	30.254 
01:05	45.7	45.7	45.7	44	25.0	2	7	90	0.00	30.254 
01:10	45.5	45.5	45.5	44	24.9	2	7	90	0.00	30.254 
01:15	45.4	45.4	45.4	43	24.2	2	5	112	0.00	30.252 
01:20	45.4	45.4	45.4	44	24.8	3	5	90	0.00	30.252 
01:25	45.4	45.4	45.4	44	24.8	3	5	90	0.00	30.252 
01:30	45.2	45.2	45.2	44	24.6	2	5	90	0.00	30.249 
01:35	45.2	45.2	45.2	45	25.1	2	6	90	0.00	30.249 
01:40	45.1	45.1	45.1	45	25.0	2	6	90	0.00	30.249 
01:45	45.1	45.1	45.1	45	25.0	3	7	90	0.00	30.243 
01:50	44.9	44.9	44.9	45	24.9	2	5	90	0.00	30.243 
01:55	44.8	44.8	44.8	46	25.3	2	4	90	0.00	30.243 
02:00	44.6	44.6	44.6	46	25.1	1	3	90	0.00	30.244 
02:05	44.5	44.5	44.5	47	25.5	1	2	90	0.00	30.244 
02:10	44.3	44.3	44.3	49	26.4	1	3	90	0.00	30.244 
02:15	44.1	44.1	44.1	50	26.7	1	3	90	0.00	30.237 
02:20	43.9	43.9	43.9	49	26.0	1	3	90	0.00	30.237 
02:25	43.8	43.8	43.8	51	26.9	1	3	90	0.00	30.237 
02:30	43.6	43.6	43.6	51	26.7	0	2	112	0.00	30.242 
02:35	43.3	43.3	43.3	53	27.3	0	1	112	0.00	30.242 
02:40	43.2	43.2	43.2	52	26.8	1	4	112	0.00	30.242 
02:45	43.1	43.1	43.1	53	27.1	1	4	90	0.00	30.239 
02:50	43.1	43.1	43.1	53	27.1	1	3	112	0.00	30.239 
02:55	43.1	43.1	43.1	53	27.1	1	3	90	0.00	30.239 
03:00	42.9	42.9	42.9	53	27.0	1	2	112	0.00	30.238 
03:05	42.8	42.8	42.8	54	27.3	1	2	112	0.00	30.238 
03:10	42.6	42.6	42.6	55	27.6	1	2	112	0.00	30.238 
03:15	42.3	42.3	42.3	57	28.2	0	2	112	0.00	30.231 
03:20	42.2	42.2	42.2	57	28.1	0	3	112	0.00	30.231 
03:25	42.1	42.1	42.1	57	28.0	0	2	112	0.00	30.231 
03:30	42.1	42.1	42.1	58	28.4	0	2	112	0.00	30.237 
03:35	42.1	42.1	42.1	58	28.4	1	3	90	0.00	30.237 
03:40	41.9	41.9	41.9	59	28.6	0	2	90	0.00	30.237 
03:45	41.9	41.9	41.9	60	29.0	1	5	90	0.00	30.233 
03:50	41.8	41.8	41.8	60	28.9	1	2	90	0.00	30.233 
03:55	41.6	41.6	41.6	60	28.8	1	3	90	0.00	30.233 
04:00	41.5	41.5	41.5	61	29.1	1	3	90	0.00	30.229 
04:05	41.5	41.5	41.5	62	29.5	1	5	90	0.00	30.229 
04:10	41.5	41.5	41.5	62	29.5	1	3	112	0.00	30.229 
04:15	41.3	41.3	41.3	62	29.3	0	3	90	0.00	30.231 
04:20	41.2	41.2	41.2	64	30.0	1	2	68	0.00	30.231 
04:25	41.2	41.2	41.2	64	30.0	1	3	68	0.00	30.231 
04:30	41.2	41.2	41.2	64	30.0	0	2	68	0.00	30.231 
04:35	41.1	41.1	41.1	64	29.9	0	2	68	0.00	30.231 
04:40	41.1	41.1	41.1	64	29.9	1	2	68	0.00	30.231 
04:45	41.1	41.1	41.1	65	30.2	0	1	68	0.00	30.230 
04:50	40.9	40.9	40.9	65	30.1	0	2	68	0.00	30.230 
04:55	40.9	40.9	40.9	65	30.1	0	2	90	0.00	30.230 
05:00	40.8	40.8	40.8	66	30.3	0	1	90	0.00	30.243 
05:05	40.8	40.8	40.8	66	30.3	0	2	90	0.00	30.243 
05:10	40.8	40.8	40.8	66	30.3	1	2	90	0.00	30.243 
05:15	40.8	40.8	40.8	66	30.3	0	2	90	0.00	30.242 
05:20	40.8	40.8	40.8	66	30.3	0	1	90	0.00	30.242 
05:25	40.8	40.8	40.8	67	30.7	0	1	90	0.00	30.242 
05:30	40.6	40.6	40.6	67	30.5	0	1	90	0.00	30.243 
05:35	40.6	40.6	40.6	67	30.5	1	3	90	0.00	30.243 
05:40	40.6	40.6	40.6	67	30.5	0	2	90	0.00	30.243 
05:45	40.6	40.6	40.6	67	30.5	0	2	68	0.00	30.244 
05:50	40.8	40.8	40.8	68	31.1	0	3	68	0.00	30.244 
05:55	40.8	40.8	40.8	68	31.1	0	3	68	0.00	30.244 
06:00	40.8	40.8	40.8	68	31.1	1	4	90	0.00	30.245 
06:05	40.9	40.9	40.9	68	31.2	1	3	90	0.00	30.245 
06:10	40.9	40.9	40.9	68	31.2	1	4	45	0.00	30.245 
06:15	40.9	40.9	40.9	68	31.2	1	3	90	0.00	30.245 
06:20	40.9	40.9	40.9	68	31.2	1	2	112	0.00	30.245 
06:25	40.9	40.9	40.9	68	31.2	1	5	112	0.00	30.245 
06:30	40.9	40.9	40.9	68	31.2	1	3	112	0.00	30.246 
06:35	40.9	40.9	40.9	68	31.2	1	4	112	0.00	30.246 
06:40	41.1	41.1	41.1	68	31.4	1	3	112	0.00	30.246 
06:45	41.1	41.1	41.1	68	31.4	1	3	112	0.00	30.246 
06:50	40.9	40.9	40.9	68	31.2	1	3	112	0.00	30.246 
06:55	40.9	40.9	40.9	68	31.2	2	3	112	0.00	30.246 
07:00	41.1	41.1	41.1	68	31.4	2	3	90	0.00	30.247 
07:05	41.2	41.2	41.2	67	31.1	2	4	112	0.00	30.247 
07:10	41.2	41.2	41.2	67	31.1	2	5	112	0.00	30.247 
07:15	41.3	41.3	41.3	67	31.2	2	4	90	0.00	30.256 
07:20	41.5	41.5	41.5	67	31.4	2	5	112	0.00	30.256 
07:25	41.6	41.6	41.6	68	31.8	2	5	90	0.00	30.256 
07:30	42.1	42.1	42.1	66	31.6	2	5	90	0.00	30.261 
07:35	42.3	42.3	42.3	65	31.4	2	6	90	0.00	30.261 
07:40	42.6	42.6	42.6	65	31.7	3	7	112	0.00	30.261 
07:45	42.8	42.8	42.8	65	31.9	2	5	112	0.00	30.261 
07:50	42.9	42.9	42.9	65	32.0	2	6	90	0.00	30.261 
07:55	42.9	42.9	42.9	65	32.0	2	6	90	0.00	30.261 
08:00	43.2	43.2	43.2	64	31.9	2	5	90	0.00	30.252 
08:05	43.3	43.3	43.3	64	32.0	2	5	90	0.00	30.252 
08:10	43.6	43.6	43.6	63	31.8	3	7	90	0.00	30.252 
08:15	44.1	44.1	44.1	63	32.3	2	4	90	0.00	30.254 
08:20	44.8	44.8	44.8	61	32.2	2	6	112	0.00	30.254 
08:25	45.2	45.2	45.2	61	32.6	3	6	90	0.00	30.254 
08:30	46.0	46.0	46.0	61	33.3	1	4	90	0.00	30.250 
08:35	46.7	46.7	46.7	60	33.6	2	3	90	0.00	30.250 
08:40	47.1	45.5	47.1	56	32.2	4	8	90	0.00	30.250 
08:45	47.4	47.4	47.4	56	32.5	3	10	112	0.00	30.248 
08:50	47.7	46.2	47.7	54	31.9	4	7	90	0.00	30.248 
08:55	48.0	48.0	48.0	55	32.6	3	6	112	0.00	30.248 
09:00	48.0	48.0	48.0	54	32.2	3	7	90	0.00	30.248 
09:05	48.3	48.3	48.3	55	32.9	2	6	90	0.00	30.248 
09:10	48.8	48.8	48.8	54	32.9	3	7	90	0.00	30.248 
09:15	48.8	48.8	48.8	55	33.4	3	9	90	0.00	30.249 
09:20	49.2	49.2	49.2	53	32.8	3	5	90	0.00	30.249 
09:25	49.8	49.8	49.8	54	33.8	3	7	90	0.00	30.249 
09:30	50.5	50.5	50.5	51	33.1	3	7	112	0.00	30.248 
09:35	50.8	50.8	50.8	50	32.8	3	7	90	0.00	30.248 
09:40	51.0	51.0	51.0	50	33.0	3	7	90	0.00	30.248 
09:45	51.6	51.6	51.6	49	33.1	3	9	90	0.00	30.246 
09:50	52.8	52.8	52.8	48	33.7	3	7	90	0.00	30.246 
09:55	53.3	53.3	53.3	45	32.5	4	9	112	0.00	30.246 
10:00	54.1	54.1	54.1	47	34.3	4	7	112	0.00	30.230 
10:05	54.7	54.7	54.7	43	32.6	4	11	112	0.00	30.230 
10:10	54.4	54.4	54.4	44	32.9	4	7	90	0.00	30.230 
10:15	54.8	54.8	54.8	44	33.3	4	7	90	0.00	30.225 
10:20	54.8	54.8	54.8	43	32.7	5	9	112	0.00	30.225 
10:25	55.1	55.1	55.1	44	33.6	4	8	90	0.00	30.225 
10:30	55.4	55.4	55.4	44	33.9	4	9	90	0.00	30.212 
10:35	55.7	55.7	55.7	41	32.4	4	10	90	0.00	30.212 
10:40	55.9	55.9	55.9	45	34.9	4	9	112	0.00	30.212 
10:45	56.5	56.5	56.5	43	34.3	5	10	112	0.00	30.207 
10:50	57.0	57.0	57.0	41	33.5	4	10	112	0.00	30.207 
10:55	57.5	57.5	57.5	40	33.4	5	9	90	0.00	30.207 
11:00	57.8	57.8	57.8	39	33.0	4	9	112	0.00	30.210 
11:05	58.4	58.4	58.4	38	32.9	4	9	112	0.00	30.210 
11:10	58.7	58.7	58.7	40	34.4	4	7	90	0.00	30.210 
11:15	59.0	59.0	59.0	38	33.4	4	9	90	0.00	30.212 
11:20	59.5	59.5	59.5	37	33.2	4	9	112	0.00	30.212 
11:25	59.9	59.9	59.9	38	34.2	4	7	112	0.00	30.212 
11:30	60.4	60.4	60.4	38	34.7	4	10	90	0.00	30.212 
11:35	60.7	60.7	60.7	35	32.9	4	9	90	0.00	30.212 
11:40	61.3	61.3	61.3	38	35.5	3	6	112	0.00	30.212 
11:45	61.5	61.5	61.5	32	31.4	5	9	112	0.00	30.213 
11:50	61.8	61.8	61.8	34	33.1	4	9	90	0.00	30.213 
11:55	62.0	62.0	62.0	34	33.3	4	10	90	0.00	30.213 
12:00	61.8	61.8	61.8	35	33.9	5	9	112	0.00	30.214 
12:05	62.1	62.1	62.1	33	32.7	3	6	90	0.00	30.214 
12:10	62.4	62.4	62.4	33	32.9	3	6	112	0.00	30.214 
12:15	62.7	62.7	62.7	31	31.6	4	7	90	0.00	30.213 
12:20	63.2	63.2	63.2	33	33.6	3	6	112	0.00	30.213 
12:25	63.9	63.9	63.9	32	33.5	3	6	90	0.00	30.213 
12:30	64.5	64.5	64.5	32	34.0	3	6	90	0.00	30.209 
12:35	65.0	65.0	65.0	30	32.8	2	5	112	0.00	30.209 
12:40	65.3	65.3	65.3	28	31.4	4	9	112	0.00	30.209 
12:45	65.2	65.2	65.2	27	30.4	4	7	90	0.00	30.208 
12:50	65.6	65.6	65.6	26	29.8	4	7	112	0.00	30.208 
12:55	66.0	66.0	66.0	25	29.2	4	7	90	0.00	30.208 
13:00	66.3	66.3	66.3	27	31.3	3	7	112	0.00	30.199 
13:05	66.6	66.6	66.6	25	29.7	4	9	112	0.00	30.199 
13:10	67.1	67.1	67.1	26	31.1	3	6	90	0.00	30.199 
13:15	67.1	67.1	67.1	26	31.1	5	13	112	0.00	30.198 
13:20	67.3	67.3	67.3	27	32.2	3	9	90	0.00	30.198 
13:25	67.4	67.4	67.4	26	31.3	3	7	90	0.00	30.198 
13:30	67.6	67.6	67.6	26	31.5	4	10	112	0.00	30.204 
13:35	67.3	67.3	67.3	25	30.3	5	11	90	0.00	30.204 
13:40	67.3	67.3	67.3	26	31.2	3	4	90	0.00	30.204 
13:45	67.4	67.4	67.4	26	31.3	4	7	90	0.00	30.205 
13:50	67.6	67.6	67.6	25	30.5	3	8	90	0.00	30.205 
13:55	67.3	67.3	67.3	25	30.3	4	10	112	0.00	30.205 
14:00	67.3	67.3	67.3	26	31.2	3	8	112	0.00	30.206 
14:05	67.3	67.3	67.3	26	31.2	3	6	112	0.00	30.206 
14:10	67.3	67.3	67.3	25	30.3	4	7	112	0.00	30.206 
14:15	67.3	67.3	67.3	25	30.3	3	6	112	0.00	30.204 
14:20	67.3	67.3	67.3	26	31.2	3	9	112	0.00	30.204 
14:25	67.4	67.4	67.4	26	31.3	3	10	112	0.00	30.204 
14:30	67.3	67.3	67.3	26	31.2	3	11	90	0.00	30.199 
14:35	67.4	67.4	67.4	25	30.4	3	7	90	0.00	30.199 
14:40	67.6	67.6	67.6	26	31.5	3	7	112	0.00	30.199 
14:45	67.4	67.4	67.4	27	32.3	4	8	112	0.00	30.194 
14:50	67.6	67.6	67.6	27	32.4	4	10	90	0.00	30.194 
14:55	67.8	67.8	67.8	27	32.6	4	7	112	0.00	30.194 
15:00	67.9	67.9	67.9	27	32.7	3	6	112	0.00	30.193 
15:05	68.1	68.1	68.1	27	32.9	3	7	90	0.00	30.193 
15:10	68.1	68.1	68.1	28	33.8	3	7	90	0.00	30.193 
15:15	68.1	68.1	68.1	27	32.9	4	8	90	0.00	30.186 
15:20	68.3	68.3	68.3	28	33.9	3	7	112	0.00	30.186 
15:25	68.4	68.4	68.4	27	33.1	3	7	112	0.00	30.186 
15:30	68.4	68.4	68.4	27	33.1	4	9	90	0.00	30.180 
15:35	68.8	68.8	68.8	28	34.4	3	8	112	0.00	30.180 
15:40	68.8	68.8	68.8	27	33.5	2	9	112	0.00	30.180 
15:45	68.9	68.9	68.9	29	35.3	2	4	112	0.00	30.176 
15:50	69.1	69.1	69.1	28	34.6	2	10	112	0.00	30.176 
15:55	69.1	69.1	69.1	27	33.7	2	9	112	0.00	30.176 
16:00	69.1	69.1	69.1	28	34.6	2	5	90	0.00	30.176 
16:05	68.9	68.9	68.9	28	34.4	3	6	90	0.00	30.176 
16:10	68.8	68.8	68.8	28	34.4	2	5	90	0.00	30.176 
16:15	68.6	68.6	68.6	28	34.2	3	7	112	0.00	30.165 
16:20	68.8	68.8	68.8	31	36.9	1	4	68	0.00	30.165 
16:25	68.8	68.8	68.8	29	35.2	1	3	112	0.00	30.165 
16:30	68.6	68.6	68.6	28	34.2	3	5	112	0.00	30.163 
16:35	68.4	68.4	68.4	28	34.0	3	6	112	0.00	30.163 
16:40	68.4	68.4	68.4	30	35.7	2	5	90	0.00	30.163 
16:45	68.3	68.3	68.3	30	35.7	3	6	90	0.00	30.161 
16:50	68.3	68.3	68.3	29	34.8	2	6	112	0.00	30.161 
16:55	68.3	68.3	68.3	29	34.8	2	6	112	0.00	30.161 
17:00	68.3	68.3	68.3	32	37.3	2	6	90	0.00	30.162 
17:05	68.3	68.3	68.3	32	37.3	2	4	112	0.00	30.162 
17:10	68.3	68.3	68.3	31	36.5	3	6	112	0.00	30.162 
17:15	68.1	68.1	68.1	31	36.3	3	6	112	0.00	30.162 
17:20	68.1	68.1	68.1	31	36.3	3	7	112	0.00	30.162 
17:25	67.9	67.9	67.9	33	37.7	2	5	90	0.00	30.162 
17:30	67.9	67.9	67.9	33	37.7	2	6	112	0.00	30.154 
17:35	67.9	67.9	67.9	34	38.5	1	4	90	0.00	30.154 
17:40	67.8	67.8	67.8	33	37.6	2	6	90	0.00	30.154 
17:45	67.8	67.8	67.8	34	38.4	2	7	112	0.00	30.148 
17:50	67.6	67.6	67.6	34	38.2	2	6	112	0.00	30.148 
17:55	67.4	67.4	67.4	33	37.3	2	6	90	0.00	30.148 
18:00	67.4	67.4	67.4	34	38.1	2	7	90	0.00	30.147 
18:05	67.6	67.6	67.6	35	39.0	1	3	112	0.00	30.147 
18:10	67.6	67.6	67.6	35	39.0	2	4	112	0.00	30.147 
18:15	67.6	67.6	67.6	36	39.7	1	4	112	0.00	30.147 
18:20	67.6	67.6	67.6	35	39.0	2	5	112	0.00	30.147 
18:25	67.6	67.6	67.6	35	39.0	2	5	112	0.00	30.147 
18:30	67.6	67.6	67.6	35	39.0	2	4	112	0.00	30.148 
18:35	67.4	67.4	67.4	35	38.8	1	4	112	0.00	30.148 
18:40	67.4	67.4	67.4	36	39.5	1	3	112	0.00	30.148 
18:45	67.3	67.3	67.3	36	39.4	1	3	90	0.00	30.148 
18:50	67.1	67.1	67.1	37	40.0	1	3	90	0.00	30.148 
18:55	67.1	67.1	67.1	37	40.0	1	2	90	0.00	30.148 
19:00	66.9	66.9	66.9	37	39.8	0	2	90	0.00	30.142 
19:05	66.8	66.8	66.8	39	41.0	1	3	90	0.00	30.142 
19:10	66.6	66.6	66.6	39	40.9	1	2	90	0.00	30.142 
19:15	66.4	66.4	66.4	40	41.3	1	3	90	0.00	30.131 
19:20	66.3	66.3	66.3	39	40.6	1	6	90	0.00	30.131 
19:25	66.3	66.3	66.3	40	41.2	1	4	90	0.00	30.131 
19:30	66.1	66.1	66.1	40	41.1	1	2	90	0.00	30.133 
19:35	66.0	66.0	66.0	40	41.0	1	2	90	0.00	30.133 
19:40	65.8	65.8	65.8	41	41.4	1	2	90	0.00	30.133 
19:45	65.6	65.6	65.6	40	40.6	1	3	90	0.00	30.131 
19:50	65.6	65.6	65.6	40	40.6	2	4	90	0.00	30.131 
19:55	65.6	65.6	65.6	41	41.3	2	4	112	0.00	30.131 
20:00	65.6	65.6	65.6	42	41.9	1	3	90	0.00	30.137 
20:05	65.5	65.5	65.5	43	42.4	2	3	90	0.00	30.137 
20:10	65.3	65.3	65.3	43	42.2	1	3	90	0.00	30.137 
20:15	65.0	65.0	65.0	45	43.1	0	2	90	0.00	30.140 
20:20	64.8	64.8	64.8	46	43.5	0	1	90	0.00	30.140 
20:25	64.5	64.5	64.5	46	43.3	0	0	---	0.00	30.140 
20:30	64.2	64.2	64.2	46	43.0	0	1	90	0.00	30.146 
20:35	63.9	63.9	63.9	48	43.8	0	0	---	0.00	30.146 
20:40	63.5	63.5	63.5	50	44.5	0	0	---	0.00	30.146 
20:45	63.1	63.1	63.1	53	45.7	0	0	---	0.00	30.159 
20:50	62.3	62.3	62.3	58	47.3	0	1	90	0.00	30.159 
20:55	61.8	61.8	61.8	52	44.0	2	5	68	0.00	30.159 
21:00	61.3	61.3	61.3	53	44.0	1	3	90	0.00	30.163 
21:05	60.9	60.9	60.9	54	44.1	1	3	68	0.00	30.163 
21:10	60.5	60.5	60.5	55	44.2	1	2	68	0.00	30.163 
21:15	60.1	60.1	60.1	52	42.4	2	4	68	0.00	30.166 
21:20	59.9	59.9	59.9	55	43.7	0	2	90	0.00	30.166 
21:25	59.8	59.8	59.8	53	42.6	0	3	90	0.00	30.166 
21:30	59.6	59.6	59.6	53	42.4	1	4	112	0.00	30.170 
21:35	59.5	59.5	59.5	53	42.4	1	2	90	0.00	30.170 
21:40	59.3	59.3	59.3	52	41.7	1	4	90	0.00	30.170 
21:45	59.0	59.0	59.0	52	41.4	1	3	68	0.00	30.172 
21:50	59.0	59.0	59.0	51	40.9	1	5	112	0.00	30.172 
21:55	58.9	58.9	58.9	51	40.8	1	4	112	0.00	30.172 
22:00	58.7	58.7	58.7	51	40.6	1	3	90	0.00	30.181 
22:05	58.4	58.4	58.4	53	41.3	1	3	112	0.00	30.181 
22:10	58.3	58.3	58.3	52	40.8	1	4	112	0.00	30.181 
22:15	58.0	58.0	58.0	52	40.5	1	5	112	0.00	30.172 
22:20	57.6	57.6	57.6	54	41.1	1	4	90	0.00	30.172 
22:25	57.5	57.5	57.5	54	41.0	0	2	90	0.00	30.172 
22:30	57.2	57.2	57.2	53	40.2	1	3	90	0.00	30.174 
22:35	56.9	56.9	56.9	54	40.4	0	2	90	0.00	30.174 
22:40	56.6	56.6	56.6	54	40.1	0	2	90	0.00	30.174 
22:45	56.5	56.5	56.5	54	40.1	0	2	90	0.00	30.178 
22:50	56.3	56.3	56.3	55	40.3	1	2	90	0.00	30.178 
22:55	56.0	56.0	56.0	57	41.0	1	2	90	0.00	30.178 
23:00	55.9	55.9	55.9	56	40.4	0	3	90	0.00	30.172 
23:05	55.7	55.7	55.7	55	39.8	1	3	68	0.00	30.172 
23:10	55.4	55.4	55.4	54	39.0	1	5	112	0.00	30.172 
23:15	55.3	55.3	55.3	54	38.9	1	2	90	0.00	30.170 
23:20	55.1	55.1	55.1	54	38.8	2	4	22	0.00	30.170 
23:25	55.1	55.1	55.1	54	38.8	1	3	45	0.00	30.170 
23:30	55.0	55.0	55.0	54	38.7	0	3	45	0.00	30.170 
23:35	54.8	54.8	54.8	55	38.9	0	2	45	0.00	30.170 
23:40	54.7	54.7	54.7	55	38.9	0	2	45	0.00	30.170 
23:45	54.5	54.5	54.5	54	38.2	1	4	90	0.00	30.167 
23:50	54.5	54.5	54.5	54	38.2	1	3	90	0.00	30.167 
23:55	54.4	54.4	54.4	54	38.1	0	2	90	0.00	30.167 

CoCoRaHS
IN-AL-39
A2 Web Hosting
Creative Commons License
GoDaddy
Look for:

loaded 2017-12-10 21:17:53 • last modified 2010-11-18 10:43:29
Privacy PolicyDisclaimer
• wx.awcolley.com is powered by PmWiki v.2002016 •
• all content (unless otherwise noted) © 2017 A W Colley